Time;durP1;ratioP1;P1;durP2;ratioP2;P2;SDS_P1;SDS_P2;PMS_P1;PMS_P2;Temp;Humidity;BMP_temperature;BMP_pressure;BME280_temperature;BME280_humidity;BME280_pressure;Samples;Min_cycle;Max_cycle;Signal;HPM_P1;HPM_P2
2022/08/20 00:01:00;;;;;;;16.95;4.78;;;19.10;99.90;;;;;;5081221;28;20032;-73
2022/08/20 00:03:32;;;;;;;13.10;5.22;;;19.10;99.90;;;;;;5078354;28;20130;-74
2022/08/20 00:06:20;;;;;;;14.63;4.93;;;19.10;99.90;;;;;;5064945;28;20133;-74
2022/08/20 00:08:46;;;;;;;16.05;5.78;;;19.10;99.90;;;;;;5060610;28;20043;-74
2022/08/20 00:11:15;;;;;;;14.13;5.63;;;19.10;99.90;;;;;;5075446;28;20153;-73
2022/08/20 00:13:50;;;;;;;16.73;6.22;;;19.10;99.90;;;;;;5058669;28;20550;-74
2022/08/20 00:16:18;;;;;;;14.10;5.85;;;19.20;99.90;;;;;;5080877;28;20142;-74
2022/08/20 00:18:44;;;;;;;13.85;5.50;;;19.10;99.90;;;;;;5080175;28;20130;-74
2022/08/20 00:21:14;;;;;;;20.40;6.25;;;19.10;99.90;;;;;;5079849;28;20129;-74
2022/08/20 00:23:42;;;;;;;12.82;5.90;;;19.10;99.90;;;;;;5080677;28;20756;-74
2022/08/20 00:26:09;;;;;;;17.08;5.50;;;19.10;99.90;;;;;;5086823;27;20441;-74
2022/08/20 00:28:35;;;;;;;12.50;5.60;;;19.10;99.90;;;;;;5076522;28;20044;-74
2022/08/20 00:31:10;;;;;;;18.48;6.45;;;19.10;99.90;;;;;;5088397;28;20051;-74
2022/08/20 00:33:38;;;;;;;18.60;6.38;;;19.10;99.90;;;;;;5085933;28;20115;-74
2022/08/20 00:36:05;;;;;;;15.80;5.85;;;19.10;99.90;;;;;;5084555;28;20036;-74
2022/08/20 00:38:36;;;;;;;15.25;5.88;;;19.10;99.90;;;;;;5077272;28;20032;-75
2022/08/20 00:41:03;;;;;;;17.95;5.65;;;19.10;99.90;;;;;;5064342;28;20467;-74
2022/08/20 00:43:29;;;;;;;12.77;5.10;;;19.00;99.90;;;;;;5060370;28;20039;-74
2022/08/20 00:45:56;;;;;;;15.30;5.13;;;19.00;99.90;;;;;;5064727;28;20091;-74
2022/08/20 00:48:30;;;;;;;16.90;5.70;;;19.00;99.90;;;;;;5077705;28;20047;-74
2022/08/20 00:51:20;;;;;;;16.67;5.47;;;19.00;99.90;;;;;;5085988;28;20484;-75
2022/08/20 00:53:46;;;;;;;17.05;6.07;;;19.10;99.90;;;;;;5083159;28;20086;-74
2022/08/20 00:56:13;;;;;;;15.70;5.47;;;18.90;99.90;;;;;;5079987;28;20687;-74
2022/08/20 00:58:41;;;;;;;16.65;6.05;;;18.90;99.90;;;;;;5079104;28;20039;-75
2022/08/20 01:01:08;;;;;;;14.70;5.93;;;18.90;99.90;;;;;;5081176;28;20031;-75
2022/08/20 01:03:34;;;;;;;19.92;6.60;;;18.80;99.90;;;;;;5063932;28;21496;-75
2022/08/20 01:06:00;;;;;;;17.30;5.80;;;18.80;99.90;;;;;;5086977;28;20185;-75
2022/08/20 01:08:26;;;;;;;16.58;6.13;;;18.80;99.90;;;;;;5080801;28;20780;-75
2022/08/20 01:11:06;;;;;;;15.88;6.00;;;18.80;99.90;;;;;;5064921;28;20146;-75
2022/08/20 01:13:36;;;;;;;22.50;5.97;;;18.70;99.90;;;;;;5083934;28;20131;-74
2022/08/20 01:16:04;;;;;;;18.88;6.28;;;18.70;99.90;;;;;;5081261;28;20474;-74
2022/08/20 01:18:30;;;;;;;17.23;6.13;;;18.70;99.90;;;;;;5080194;28;20052;-74
2022/08/20 01:21:02;;;;;;;16.60;5.40;;;18.70;99.90;;;;;;5079698;28;20042;-74
2022/08/20 01:23:55;;;;;;;19.45;5.63;;;18.60;99.90;;;;;;5052064;28;20076;-74
2022/08/20 01:26:24;;;;;;;15.55;5.35;;;18.60;99.90;;;;;;5064851;28;20085;-75
2022/08/20 01:28:55;;;;;;;10.95;5.53;;;18.60;99.90;;;;;;5061850;28;20454;-74
2022/08/20 01:31:24;;;;;;;15.43;5.57;;;18.50;99.90;;;;;;5083666;28;20039;-75
2022/08/20 01:33:51;;;;;;;21.85;6.43;;;18.50;99.90;;;;;;5066496;28;20039;-74
2022/08/20 01:36:23;;;;;;;20.77;6.00;;;18.50;99.90;;;;;;5082003;28;20050;-74
2022/08/20 01:38:49;;;;;;;20.17;5.70;;;18.40;99.90;;;;;;5058937;28;20225;-74
2022/08/20 01:41:34;;;;;;;18.42;6.03;;;18.40;99.90;;;;;;5063982;28;20082;-74
2022/08/20 01:43:59;;;;;;;16.00;5.63;;;18.40;99.90;;;;;;5077591;28;20055;-74
2022/08/20 01:46:46;;;;;;;23.83;6.50;;;18.40;99.90;;;;;;5068629;28;20050;-75
2022/08/20 01:49:17;;;;;;;21.15;5.95;;;18.30;99.90;;;;;;5097709;28;20055;-74
2022/08/20 01:51:43;;;;;;;18.92;6.72;;;18.30;99.90;;;;;;5080408;28;20028;-74
2022/08/20 01:54:09;;;;;;;12.75;5.45;;;18.20;99.90;;;;;;5078790;28;20032;-74
2022/08/20 01:56:49;;;;;;;19.00;6.57;;;18.20;99.90;;;;;;5078275;28;20040;-74
2022/08/20 01:59:14;;;;;;;17.42;6.18;;;18.20;99.90;;;;;;5081186;28;20043;-74
2022/08/20 02:01:40;;;;;;;18.50;5.82;;;18.20;99.90;;;;;;5083243;28;20036;-74
2022/08/20 02:04:08;;;;;;;24.55;6.50;;;18.10;99.90;;;;;;5079102;28;20130;-74
2022/08/20 02:06:39;;;;;;;16.95;6.28;;;18.10;99.90;;;;;;5083015;28;20070;-74
2022/08/20 02:09:07;;;;;;;11.88;5.60;;;18.00;99.90;;;;;;5079149;28;20046;-74
2022/08/20 02:11:34;;;;;;;14.05;6.05;;;18.00;99.90;;;;;;5068079;28;20130;-74
2022/08/20 02:14:00;;;;;;;15.35;6.03;;;17.90;99.90;;;;;;5082671;28;20035;-73
2022/08/20 02:16:33;;;;;;;21.77;6.10;;;17.90;99.90;;;;;;5065377;28;21770;-73
2022/08/20 02:19:32;;;;;;;12.63;5.57;;;17.90;99.90;;;;;;5075266;28;20039;-75
2022/08/20 02:22:06;;;;;;;15.00;5.18;;;17.80;99.90;;;;;;5012947;28;20045;-74
2022/08/20 02:24:34;;;;;;;17.33;5.60;;;17.80;99.90;;;;;;4995845;28;20441;-75
2022/08/20 02:26:59;;;;;;;16.02;5.40;;;17.70;99.90;;;;;;4998426;28;20117;-75
2022/08/20 02:29:28;;;;;;;18.13;5.53;;;17.70;99.90;;;;;;4997089;28;20041;-74
2022/08/20 02:31:54;;;;;;;14.45;5.68;;;17.70;99.90;;;;;;4999191;28;20102;-75
2022/08/20 02:34:20;;;;;;;16.70;5.90;;;17.60;99.90;;;;;;5001798;28;20038;-75
2022/08/20 02:36:48;;;;;;;20.20;5.53;;;17.60;99.90;;;;;;4996804;28;20792;-75
2022/08/20 02:39:14;;;;;;;15.70;5.25;;;17.60;99.90;;;;;;4998515;28;20184;-74
2022/08/20 02:41:41;;;;;;;15.27;5.45;;;17.60;99.90;;;;;;5003855;28;20033;-74
2022/08/20 02:44:07;;;;;;;18.45;5.00;;;17.50;99.90;;;;;;5004774;28;20116;-74
2022/08/20 02:46:34;;;;;;;13.88;4.90;;;17.50;99.90;;;;;;5004972;28;20080;-74
2022/08/20 02:49:00;;;;;;;15.55;4.90;;;17.50;99.90;;;;;;5000954;28;20475;-74
2022/08/20 02:51:26;;;;;;;16.60;5.28;;;17.50;99.90;;;;;;5001359;28;20163;-74
2022/08/20 02:53:52;;;;;;;16.90;5.55;;;17.50;99.90;;;;;;5002315;28;20100;-74
2022/08/20 02:56:18;;;;;;;14.40;5.28;;;17.40;99.90;;;;;;5004223;28;20469;-74
2022/08/20 02:58:44;;;;;;;13.35;5.35;;;17.40;99.90;;;;;;5037528;28;20067;-74
2022/08/20 03:01:14;;;;;;;14.82;4.60;;;17.40;99.90;;;;;;5058463;28;20052;-74
2022/08/20 03:03:41;;;;;;;13.55;4.97;;;17.40;99.90;;;;;;5077816;28;20055;-75
2022/08/20 03:06:08;;;;;;;16.90;4.70;;;17.30;99.90;;;;;;5082369;28;20040;-75
2022/08/20 03:08:35;;;;;;;19.48;4.50;;;17.30;99.90;;;;;;5075230;28;20062;-75
2022/08/20 03:11:04;;;;;;;18.08;4.63;;;17.30;99.90;;;;;;5079513;28;20560;-75
2022/08/20 03:13:29;;;;;;;12.90;4.25;;;17.30;99.90;;;;;;5073069;28;20496;-74
2022/08/20 03:15:58;;;;;;;17.08;4.50;;;17.30;99.90;;;;;;5080020;28;20123;-74
2022/08/20 03:18:32;;;;;;;12.82;4.20;;;17.30;99.90;;;;;;5079739;28;20105;-75
2022/08/20 03:20:59;;;;;;;14.63;4.70;;;17.30;99.90;;;;;;5082972;28;20503;-75
2022/08/20 03:23:25;;;;;;;12.73;4.05;;;17.30;99.90;;;;;;5063795;28;20069;-74
2022/08/20 03:25:50;;;;;;;17.58;4.00;;;17.30;99.90;;;;;;5080842;28;20169;-75
2022/08/20 03:28:17;;;;;;;20.80;3.88;;;17.30;99.90;;;;;;5081797;28;20074;-74
2022/08/20 03:30:43;;;;;;;13.02;3.70;;;17.30;99.90;;;;;;5085902;28;20040;-74
2022/08/20 03:33:09;;;;;;;15.60;3.75;;;17.30;99.90;;;;;;5071457;28;20043;-74
2022/08/20 03:35:36;;;;;;;13.52;3.85;;;17.20;99.90;;;;;;5080477;28;20031;-74
2022/08/20 03:38:09;;;;;;;13.32;3.65;;;17.20;99.90;;;;;;5081323;28;20824;-74
2022/08/20 03:40:36;;;;;;;12.23;3.40;;;17.20;99.90;;;;;;5077640;28;20067;-74
2022/08/20 03:43:03;;;;;;;14.25;3.55;;;17.10;99.90;;;;;;5065668;28;20374;-74
2022/08/20 03:45:30;;;;;;;13.38;3.50;;;17.10;99.90;;;;;;5079287;28;20039;-74
2022/08/20 03:47:56;;;;;;;14.73;3.50;;;17.10;99.90;;;;;;5085966;28;20455;-74
2022/08/20 03:50:27;;;;;;;10.57;3.78;;;17.20;99.90;;;;;;5090396;28;20059;-74
2022/08/20 03:52:53;;;;;;;12.23;3.80;;;17.10;99.90;;;;;;5086060;28;20040;-74
2022/08/20 03:55:21;;;;;;;12.00;4.10;;;17.20;99.90;;;;;;5071538;28;20027;-73
2022/08/20 03:57:52;;;;;;;14.90;4.65;;;17.10;99.90;;;;;;5088745;28;20076;-74
2022/08/20 04:00:34;;;;;;;12.95;4.57;;;17.10;99.90;;;;;;5070696;28;20063;-74
2022/08/20 04:03:00;;;;;;;15.43;4.93;;;17.10;99.90;;;;;;5090810;28;20092;-74
2022/08/20 04:05:28;;;;;;;13.13;4.63;;;17.10;99.90;;;;;;5088749;28;20028;-73
2022/08/20 04:07:56;;;;;;;13.88;4.72;;;17.10;99.90;;;;;;5090640;28;20423;-74
2022/08/20 04:10:23;;;;;;;16.52;4.20;;;17.00;99.90;;;;;;5070240;28;20119;-74
2022/08/20 04:12:49;;;;;;;12.85;4.40;;;17.00;99.90;;;;;;5085634;28;20080;-73
2022/08/20 04:15:16;;;;;;;13.63;4.15;;;16.90;99.90;;;;;;5085468;28;20043;-74
2022/08/20 04:17:45;;;;;;;18.17;4.32;;;16.90;99.90;;;;;;5068077;28;20474;-73
2022/08/20 04:20:14;;;;;;;9.98;3.80;;;16.80;99.90;;;;;;5088507;27;20086;-73
2022/08/20 04:22:40;;;;;;;15.13;4.20;;;16.80;99.90;;;;;;5068884;28;20139;-73
2022/08/20 04:25:10;;;;;;;14.23;3.80;;;16.80;99.90;;;;;;5087460;28;20130;-74
2022/08/20 04:27:39;;;;;;;13.82;3.85;;;16.80;99.90;;;;;;5086201;28;20046;-74
2022/08/20 04:30:10;;;;;;;11.73;3.92;;;16.80;99.90;;;;;;5082190;27;20154;-74
2022/08/20 04:32:40;;;;;;;17.35;4.72;;;16.70;99.90;;;;;;5086639;28;20047;-74
2022/08/20 04:35:10;;;;;;;12.52;4.30;;;16.70;99.90;;;;;;5084618;28;20183;-74
2022/08/20 04:37:39;;;;;;;17.40;4.70;;;16.70;99.90;;;;;;5086159;27;20040;-74
2022/08/20 04:42:53;;;;;;;13.00;4.40;;;16.70;99.90;;;;;;5081740;28;20036;-74
2022/08/20 04:45:20;;;;;;;19.98;4.63;;;16.70;99.90;;;;;;5070314;28;20109;-74
2022/08/20 04:47:47;;;;;;;13.57;4.13;;;16.70;99.90;;;;;;5070104;28;20545;-74
2022/08/20 04:50:13;;;;;;;11.18;3.70;;;16.70;99.90;;;;;;5085311;28;20499;-74
2022/08/20 04:52:39;;;;;;;14.35;4.25;;;16.70;99.90;;;;;;5073845;28;20082;-74
2022/08/20 04:55:06;;;;;;;11.73;3.78;;;16.70;99.90;;;;;;5071295;28;20051;-72
2022/08/20 04:57:32;;;;;;;14.50;4.15;;;16.70;99.90;;;;;;5084939;28;20096;-74
2022/08/20 04:59:59;;;;;;;13.48;3.75;;;16.70;99.90;;;;;;5068006;28;20394;-74
2022/08/20 05:02:24;;;;;;;10.55;4.00;;;16.70;99.90;;;;;;5084104;28;20046;-74
2022/08/20 05:04:50;;;;;;;14.88;4.18;;;16.60;99.90;;;;;;5085955;28;20346;-73
2022/08/20 05:07:20;;;;;;;14.32;4.25;;;16.60;99.90;;;;;;5085294;28;20044;-74
2022/08/20 05:09:46;;;;;;;12.02;3.83;;;16.60;99.90;;;;;;5080856;28;20054;-74
2022/08/20 05:12:14;;;;;;;15.73;4.20;;;16.60;99.90;;;;;;5069763;28;20047;-74
2022/08/20 05:14:41;;;;;;;17.65;4.07;;;16.60;99.90;;;;;;5080559;28;20050;-74
2022/08/20 05:17:07;;;;;;;10.90;3.83;;;16.60;99.90;;;;;;5071222;28;20074;-74
2022/08/20 05:19:36;;;;;;;14.65;3.63;;;16.60;99.90;;;;;;5088700;28;20075;-74
2022/08/20 05:22:02;;;;;;;17.58;4.22;;;16.70;99.90;;;;;;5087741;28;20078;-75
2022/08/20 05:24:29;;;;;;;14.75;3.45;;;16.60;99.90;;;;;;5071621;28;20154;-74
2022/08/20 05:26:55;;;;;;;11.00;3.17;;;16.60;99.90;;;;;;5070757;28;20818;-73
2022/08/20 05:29:22;;;;;;;14.38;3.80;;;16.60;99.90;;;;;;5084200;28;20043;-73
2022/08/20 05:31:48;;;;;;;10.75;3.33;;;16.60;99.90;;;;;;5071110;28;20450;-73
2022/08/20 05:34:14;;;;;;;15.60;3.65;;;16.60;99.90;;;;;;5085379;28;20070;-74
2022/08/20 05:36:46;;;;;;;10.45;3.28;;;16.60;99.90;;;;;;5067411;28;20436;-73
2022/08/20 05:39:12;;;;;;;11.70;3.20;;;16.60;99.90;;;;;;5083765;28;20061;-74
2022/08/20 05:41:39;;;;;;;14.50;3.53;;;16.60;99.90;;;;;;5088746;28;20112;-73
2022/08/20 05:44:09;;;;;;;21.23;3.53;;;16.60;99.90;;;;;;5085630;28;20663;-74
2022/08/20 05:46:39;;;;;;;17.52;3.40;;;16.70;99.90;;;;;;5084605;28;20051;-73
2022/08/20 05:49:06;;;;;;;12.20;3.30;;;16.70;99.90;;;;;;5071374;28;20039;-73
2022/08/20 05:51:32;;;;;;;15.45;3.50;;;16.70;99.90;;;;;;5080146;28;20063;-74
2022/08/20 05:53:58;;;;;;;14.02;3.25;;;16.70;99.90;;;;;;5085120;28;20039;-74
2022/08/20 05:56:23;;;;;;;12.10;3.20;;;16.80;99.90;;;;;;5085786;28;20042;-73
2022/08/20 05:58:49;;;;;;;19.98;3.75;;;16.90;99.90;;;;;;5062760;28;20043;-74
2022/08/20 06:01:15;;;;;;;15.07;3.00;;;16.90;99.90;;;;;;5083446;28;20502;-73
2022/08/20 06:06:24;;;;;;;17.38;2.65;;;17.00;99.90;;;;;;5081720;28;20130;-73
2022/08/20 06:08:50;;;;;;;9.30;2.58;;;17.10;99.90;;;;;;5083825;28;20166;-74
2022/08/20 06:11:17;;;;;;;15.80;2.92;;;17.10;99.90;;;;;;5068935;28;20683;-74
2022/08/20 06:13:42;;;;;;;13.52;2.35;;;17.10;99.90;;;;;;5090408;28;20036;-74
2022/08/20 06:16:08;;;;;;;13.43;2.88;;;17.20;99.90;;;;;;5072235;28;20036;-74
2022/08/20 06:18:34;;;;;;;17.05;3.00;;;17.30;99.90;;;;;;5086525;28;20372;-77
2022/08/20 06:20:59;;;;;;;12.88;2.10;;;17.40;99.90;;;;;;5082448;28;20056;-75
2022/08/20 06:23:25;;;;;;;8.70;2.22;;;17.40;99.90;;;;;;5068951;28;20060;-76
2022/08/20 06:25:51;;;;;;;8.48;2.03;;;17.40;99.90;;;;;;5083759;28;20126;-77
2022/08/20 06:28:17;;;;;;;10.95;2.22;;;17.40;99.90;;;;;;5082706;28;20032;-77
2022/08/20 06:30:43;;;;;;;11.77;2.58;;;17.50;99.90;;;;;;5084164;28;20042;-77
2022/08/20 06:33:09;;;;;;;17.30;3.05;;;17.50;99.90;;;;;;5083155;28;20031;-78
2022/08/20 06:35:36;;;;;;;8.73;2.13;;;17.50;99.90;;;;;;5083021;28;20039;-76
2022/08/20 06:38:04;;;;;;;9.77;1.83;;;17.70;99.90;;;;;;5087662;28;20407;-75
2022/08/20 06:40:31;;;;;;;9.93;1.98;;;17.70;99.90;;;;;;5072630;28;20081;-75
2022/08/20 06:42:57;;;;;;;12.85;2.30;;;17.90;99.90;;;;;;5092567;28;20050;-74
2022/08/20 06:45:27;;;;;;;11.18;2.25;;;17.90;99.90;;;;;;5074817;28;20031;-74
2022/08/20 06:47:56;;;;;;;6.32;1.70;;;18.00;99.90;;;;;;5087276;28;20129;-75
2022/08/20 06:50:26;;;;;;;8.23;1.73;;;18.00;99.90;;;;;;5085487;28;20051;-74
2022/08/20 06:52:51;;;;;;;9.05;1.83;;;18.10;99.90;;;;;;5086122;28;20059;-75
2022/08/20 06:55:18;;;;;;;10.85;2.25;;;18.10;99.90;;;;;;5068947;28;20055;-74
2022/08/20 06:57:44;;;;;;;9.85;1.90;;;18.10;99.90;;;;;;5086061;28;20089;-74
2022/08/20 07:00:17;;;;;;;7.18;1.83;;;18.20;99.90;;;;;;5076336;28;20420;-74
2022/08/20 07:02:42;;;;;;;9.20;2.00;;;18.20;99.90;;;;;;5078524;28;20035;-74
2022/08/20 07:05:09;;;;;;;6.97;1.50;;;18.30;99.90;;;;;;5080780;28;20040;-75
2022/08/20 07:07:36;;;;;;;12.32;1.80;;;18.30;99.90;;;;;;5063895;28;20040;-74
2022/08/20 07:10:16;;;;;;;9.05;1.88;;;18.40;99.90;;;;;;5085837;28;20055;-74
2022/08/20 07:12:42;;;;;;;10.32;2.08;;;18.50;99.90;;;;;;5083186;28;20082;-75
2022/08/20 07:15:10;;;;;;;11.82;1.98;;;18.50;99.90;;;;;;5061541;28;20071;-74
2022/08/20 07:17:36;;;;;;;10.65;2.00;;;18.60;99.90;;;;;;5082401;28;20032;-74
2022/08/20 07:20:12;;;;;;;7.90;1.90;;;18.70;99.90;;;;;;5080431;28;20047;-75
2022/08/20 07:22:38;;;;;;;9.93;1.70;;;18.80;99.90;;;;;;5079612;28;20040;-75
2022/08/20 07:25:06;;;;;;;7.93;1.73;;;18.90;99.90;;;;;;5083726;28;20063;-74
2022/08/20 07:27:35;;;;;;;13.73;2.03;;;19.00;99.90;;;;;;5060491;28;20126;-74
2022/08/20 07:32:45;;;;;;;12.50;1.80;;;19.00;99.90;;;;;;5088279;28;20043;-78
2022/08/20 07:35:14;;;;;;;6.97;1.48;;;19.00;99.90;;;;;;5072735;28;20039;-74
2022/08/20 07:37:42;;;;;;;9.77;1.65;;;19.10;99.90;;;;;;5071473;28;20032;-74
2022/08/20 07:40:13;;;;;;;14.65;1.77;;;19.10;99.90;;;;;;5087360;28;20068;-75
2022/08/20 07:42:39;;;;;;;11.68;1.80;;;19.10;99.90;;;;;;5086474;28;20028;-75
2022/08/20 07:45:09;;;;;;;10.88;1.75;;;19.10;99.90;;;;;;5071370;28;20047;-75
2022/08/20 07:47:38;;;;;;;6.53;1.40;;;19.20;99.90;;;;;;5072534;28;20173;-75
2022/08/20 07:50:05;;;;;;;7.70;1.30;;;19.10;99.90;;;;;;5087584;28;20055;-75
2022/08/20 07:52:34;;;;;;;9.75;1.60;;;19.10;99.90;;;;;;5086471;28;20047;-75
2022/08/20 07:55:03;;;;;;;8.13;1.70;;;19.20;99.90;;;;;;5081956;28;20132;-74
2022/08/20 07:57:29;;;;;;;9.80;1.58;;;19.20;99.90;;;;;;5080126;28;20201;-74
2022/08/20 07:59:57;;;;;;;8.40;1.85;;;19.30;99.90;;;;;;5078980;28;20039;-74
2022/08/20 08:02:24;;;;;;;8.68;1.27;;;19.30;99.90;;;;;;5079078;28;20040;-73
2022/08/20 08:04:50;;;;;;;8.05;1.92;;;19.40;99.90;;;;;;5084249;27;20061;-73
2022/08/20 08:07:15;;;;;;;9.00;1.58;;;19.40;99.90;;;;;;5066269;28;20048;-74
2022/08/20 08:09:43;;;;;;;7.78;1.67;;;19.50;99.90;;;;;;5066736;28;20470;-74
2022/08/20 08:12:12;;;;;;;11.43;2.05;;;19.60;99.90;;;;;;5063339;28;20040;-74
2022/08/20 08:14:38;;;;;;;6.88;1.30;;;19.70;99.90;;;;;;5055911;28;20070;-73
2022/08/20 08:17:05;;;;;;;7.20;1.35;;;19.70;99.90;;;;;;5056397;28;20048;-73
2022/08/20 08:19:37;;;;;;;7.60;1.52;;;19.70;99.90;;;;;;5080045;28;20055;-73
2022/08/20 08:22:10;;;;;;;10.38;1.63;;;19.70;99.90;;;;;;5090207;28;20093;-73
2022/08/20 08:24:36;;;;;;;8.65;1.67;;;19.80;99.90;;;;;;5069067;28;20082;-73
2022/08/20 08:27:02;;;;;;;9.98;2.03;;;19.80;99.90;;;;;;5091598;28;20047;-73
2022/08/20 08:29:28;;;;;;;7.95;1.65;;;19.80;99.90;;;;;;5093904;28;20502;-73
2022/08/20 08:31:54;;;;;;;9.23;2.00;;;19.90;99.90;;;;;;5089349;28;20075;-72
2022/08/20 08:34:22;;;;;;;9.75;1.42;;;20.00;99.90;;;;;;5074438;28;20448;-72
2022/08/20 08:36:49;;;;;;;7.72;1.42;;;20.00;99.90;;;;;;5089714;28;20126;-73
2022/08/20 08:39:15;;;;;;;10.38;1.63;;;20.10;99.90;;;;;;5089851;28;20044;-73
2022/08/20 08:41:47;;;;;;;8.95;1.58;;;20.20;99.90;;;;;;5068928;28;20554;-73
2022/08/20 08:44:29;;;;;;;6.78;1.45;;;20.30;99.90;;;;;;5087099;28;20093;-73
2022/08/20 08:47:05;;;;;;;8.23;1.80;;;20.40;99.90;;;;;;5089560;28;20035;-73
2022/08/20 08:49:35;;;;;;;12.77;1.80;;;20.40;99.90;;;;;;5073126;28;20043;-73
2022/08/20 08:52:03;;;;;;;8.75;1.83;;;20.30;99.90;;;;;;5071169;28;20056;-73
2022/08/20 08:54:31;;;;;;;10.90;1.75;;;20.40;99.90;;;;;;5074470;28;20052;-72
2022/08/20 08:56:58;;;;;;;11.30;1.85;;;20.50;99.90;;;;;;5075587;28;20115;-73
2022/08/20 08:59:28;;;;;;;5.10;1.67;;;20.60;99.90;;;;;;5074855;28;20193;-73
2022/08/20 09:01:57;;;;;;;9.07;1.67;;;20.70;99.90;;;;;;5092045;28;20043;-73
2022/08/20 09:04:30;;;;;;;8.30;1.88;;;20.80;99.90;;;;;;5073975;28;20044;-73
2022/08/20 09:06:57;;;;;;;9.13;1.70;;;20.60;99.90;;;;;;5072414;28;20054;-74
2022/08/20 09:09:31;;;;;;;5.80;1.40;;;20.60;99.90;;;;;;5087172;28;20075;-74
2022/08/20 09:12:04;;;;;;;5.63;1.60;;;20.60;99.90;;;;;;5088087;28;20051;-74
2022/08/20 09:14:30;;;;;;;9.80;1.65;;;20.70;99.90;;;;;;5089347;28;20055;-74
2022/08/20 09:16:55;;;;;;;6.50;1.48;;;20.90;99.90;;;;;;5086841;28;20495;-73
2022/08/20 09:19:21;;;;;;;8.35;1.58;;;21.00;99.90;;;;;;5074978;28;20055;-73
2022/08/20 09:21:47;;;;;;;9.15;1.73;;;20.90;99.90;;;;;;5071435;28;20052;-73
2022/08/20 09:24:12;;;;;;;8.48;1.60;;;20.90;99.90;;;;;;5088570;28;20042;-73
2022/08/20 09:26:38;;;;;;;6.95;1.45;;;20.90;99.90;;;;;;5088306;28;22785;-73
2022/08/20 09:29:04;;;;;;;8.13;1.48;;;21.00;99.90;;;;;;5087208;28;20175;-72
2022/08/20 09:31:29;;;;;;;11.20;1.67;;;21.20;99.90;;;;;;5073874;28;20039;-74
2022/08/20 09:33:55;;;;;;;6.68;1.63;;;21.40;99.90;;;;;;5089482;28;20483;-74
2022/08/20 09:36:20;;;;;;;6.00;1.60;;;21.40;99.90;;;;;;5071865;28;20498;-74
2022/08/20 09:38:46;;;;;;;7.45;1.40;;;21.40;99.90;;;;;;5084429;28;20122;-74
2022/08/20 09:41:12;;;;;;;5.43;1.40;;;21.30;99.90;;;;;;5089093;28;20108;-74
2022/08/20 09:43:37;;;;;;;10.85;1.70;;;21.40;99.90;;;;;;5090681;28;20089;-74
2022/08/20 09:46:03;;;;;;;8.68;2.10;;;21.60;99.90;;;;;;5089556;28;20043;-73
2022/08/20 09:48:29;;;;;;;10.52;1.70;;;21.80;99.90;;;;;;5067949;28;20120;-73
2022/08/20 09:50:54;;;;;;;7.50;1.58;;;21.90;99.90;;;;;;5084627;28;20049;-73
2022/08/20 09:53:21;;;;;;;10.13;1.58;;;21.80;99.90;;;;;;5088030;28;20441;-73
2022/08/20 09:55:52;;;;;;;10.15;2.08;;;21.80;99.90;;;;;;5092099;28;20085;-73
2022/08/20 09:58:29;;;;;;;7.47;1.52;;;21.80;99.90;;;;;;5088276;28;20044;-73
2022/08/20 10:01:16;;;;;;;9.60;1.65;;;22.00;99.90;;;;;;5088000;28;20505;-73
2022/08/20 10:03:43;;;;;;;7.88;2.03;;;22.20;99.90;;;;;;5072662;28;20158;-74
2022/08/20 10:06:10;;;;;;;6.22;1.80;;;22.30;99.90;;;;;;5090088;28;20131;-73
2022/08/20 10:08:36;;;;;;;5.88;1.50;;;22.30;99.90;;;;;;5092511;28;20044;-73
2022/08/20 10:11:02;;;;;;;7.07;1.45;;;22.50;99.90;;;;;;5090822;28;20047;-73
2022/08/20 10:13:27;;;;;;;8.55;1.83;;;22.50;99.90;;;;;;5101695;28;20070;-72
2022/08/20 10:15:53;;;;;;;8.85;1.70;;;22.80;99.90;;;;;;5084566;28;20376;-74
2022/08/20 10:18:19;;;;;;;9.60;1.85;;;23.10;99.90;;;;;;5088590;28;20079;-74
2022/08/20 10:20:44;;;;;;;11.13;2.33;;;23.10;99.90;;;;;;5084323;28;20035;-72
2022/08/20 10:23:10;;;;;;;6.70;1.63;;;23.10;99.90;;;;;;5086211;28;20425;-72
2022/08/20 10:25:36;;;;;;;4.78;1.70;;;23.30;99.50;;;;;;5087403;28;20052;-73
2022/08/20 10:28:03;;;;;;;10.60;1.80;;;23.40;99.60;;;;;;5102412;28;20058;-74
2022/08/20 10:30:28;;;;;;;3.65;1.50;;;23.40;99.60;;;;;;5081702;28;20046;-74
2022/08/20 10:32:54;;;;;;;6.20;1.42;;;23.40;98.30;;;;;;5073296;28;20035;-74
2022/08/20 10:35:21;;;;;;;11.45;2.10;;;23.40;98.80;;;;;;5079473;28;20047;-74
2022/08/20 10:37:46;;;;;;;6.35;1.75;;;23.60;98.60;;;;;;5075311;28;20032;-74
2022/08/20 10:40:14;;;;;;;5.97;1.42;;;23.50;99.00;;;;;;5076424;28;20500;-74
2022/08/20 10:42:42;;;;;;;7.18;1.80;;;23.60;98.90;;;;;;5075599;28;20036;-74
2022/08/20 10:45:09;;;;;;;5.80;1.77;;;23.70;98.30;;;;;;5065401;28;20428;-74
2022/08/20 10:47:35;;;;;;;5.47;1.35;;;23.60;98.50;;;;;;5078443;28;20168;-73
2022/08/20 10:50:02;;;;;;;6.55;1.67;;;23.50;98.80;;;;;;5064941;28;20088;-74
2022/08/20 10:52:28;;;;;;;7.47;1.83;;;23.60;98.70;;;;;;5080067;28;20040;-73
2022/08/20 10:54:55;;;;;;;5.22;1.52;;;23.70;98.90;;;;;;5065077;28;20059;-74
2022/08/20 10:57:30;;;;;;;5.90;1.65;;;23.80;98.90;;;;;;5085490;28;20069;-74
2022/08/20 10:59:57;;;;;;;9.02;1.80;;;23.80;99.00;;;;;;5083364;28;20044;-74
2022/08/20 11:02:24;;;;;;;5.05;1.60;;;23.80;99.50;;;;;;5083788;28;20118;-73
2022/08/20 11:04:51;;;;;;;10.40;2.13;;;23.80;99.10;;;;;;5071563;28;20043;-74
2022/08/20 11:07:18;;;;;;;10.82;2.33;;;23.70;99.30;;;;;;5086863;28;20035;-73
2022/08/20 11:09:44;;;;;;;8.27;1.98;;;23.60;99.20;;;;;;5083092;28;20052;-74
2022/08/20 11:12:11;;;;;;;8.75;2.30;;;23.70;99.80;;;;;;5086050;28;20132;-74
2022/08/20 11:14:37;;;;;;;8.82;2.10;;;23.80;99.90;;;;;;5069427;28;20122;-74
2022/08/20 11:17:04;;;;;;;11.75;2.33;;;23.80;99.60;;;;;;5090064;28;20035;-72
2022/08/20 11:19:29;;;;;;;7.90;2.10;;;24.00;99.60;;;;;;5073049;28;20411;-74
2022/08/20 11:21:56;;;;;;;7.10;1.77;;;24.10;99.30;;;;;;5090294;28;20092;-74
2022/08/20 11:24:21;;;;;;;9.15;2.00;;;23.90;99.20;;;;;;5083530;28;20065;-73
2022/08/20 11:26:49;;;;;;;10.23;2.25;;;23.80;99.40;;;;;;5073331;28;20433;-74
2022/08/20 11:29:15;;;;;;;11.38;2.00;;;24.20;99.10;;;;;;5091211;28;20046;-74
2022/08/20 11:31:40;;;;;;;8.07;2.00;;;24.60;99.90;;;;;;5086199;28;20070;-73
2022/08/20 11:34:06;;;;;;;7.18;2.05;;;25.00;99.60;;;;;;5068744;28;20429;-74
2022/08/20 11:36:32;;;;;;;9.95;2.08;;;25.30;97.10;;;;;;5076471;28;20100;-75
2022/08/20 11:38:57;;;;;;;5.70;1.65;;;25.30;97.50;;;;;;5077404;28;20059;-76
2022/08/20 11:41:23;;;;;;;6.60;1.55;;;25.60;95.70;;;;;;5084387;28;20031;-74
2022/08/20 11:43:49;;;;;;;10.25;2.17;;;25.70;96.30;;;;;;5081144;28;20489;-75
2022/08/20 11:46:14;;;;;;;5.72;1.95;;;26.10;95.70;;;;;;5071369;28;20100;-75
2022/08/20 11:48:40;;;;;;;7.57;1.80;;;26.40;95.80;;;;;;5086659;28;20044;-75
2022/08/20 11:51:06;;;;;;;9.63;1.58;;;26.60;95.90;;;;;;5083086;28;20391;-74
2022/08/20 11:53:34;;;;;;;9.48;2.33;;;26.70;94.80;;;;;;5087000;28;20047;-75
2022/08/20 11:56:00;;;;;;;6.85;1.85;;;26.80;95.10;;;;;;5067140;28;20070;-76
2022/08/20 11:58:26;;;;;;;7.57;1.92;;;27.30;95.60;;;;;;5068181;28;21607;-75
2022/08/20 12:00:52;;;;;;;10.10;2.00;;;27.50;95.30;;;;;;5066945;28;20039;-75
2022/08/20 12:03:18;;;;;;;8.95;1.80;;;27.80;94.00;;;;;;5082854;28;21328;-74
2022/08/20 12:05:45;;;;;;;6.13;2.05;;;27.00;94.00;;;;;;5087734;28;20031;-75
2022/08/20 12:08:13;;;;;;;6.82;2.10;;;26.50;93.90;;;;;;5084755;28;20047;-75
2022/08/20 12:10:38;;;;;;;6.90;2.00;;;26.00;94.00;;;;;;5091424;28;20505;-75
2022/08/20 12:13:05;;;;;;;11.27;1.77;;;26.00;94.10;;;;;;5071458;28;20040;-74
2022/08/20 12:15:36;;;;;;;6.13;1.48;;;26.30;94.70;;;;;;5091563;28;20479;-74
2022/08/20 12:18:06;;;;;;;13.63;1.70;;;26.60;93.30;;;;;;5089230;28;20031;-74
2022/08/20 12:20:32;;;;;;;7.57;2.00;;;26.40;93.40;;;;;;5074684;28;20511;-74
2022/08/20 12:22:57;;;;;;;9.93;2.03;;;26.60;94.20;;;;;;5074277;28;20131;-74
2022/08/20 12:25:23;;;;;;;6.47;2.00;;;27.00;93.50;;;;;;5095048;28;20050;-75
2022/08/20 12:27:49;;;;;;;7.00;1.92;;;26.80;93.40;;;;;;5075581;28;20040;-75
2022/08/20 12:30:19;;;;;;;7.80;1.80;;;26.50;93.10;;;;;;5072717;28;20728;-76
2022/08/20 12:32:46;;;;;;;8.23;2.13;;;26.50;93.40;;;;;;5086618;28;20395;-73
2022/08/20 12:35:13;;;;;;;8.70;1.88;;;26.80;93.30;;;;;;5090087;28;20147;-74
2022/08/20 12:37:40;;;;;;;6.15;1.77;;;27.20;93.20;;;;;;5072879;28;20159;-73
2022/08/20 12:40:10;;;;;;;8.20;2.00;;;27.30;92.80;;;;;;5069773;28;20040;-74
2022/08/20 12:42:36;;;;;;;11.52;2.30;;;27.10;92.70;;;;;;5088552;28;20040;-73
2022/08/20 12:45:02;;;;;;;8.00;2.25;;;27.10;92.40;;;;;;5077781;28;20109;-75
2022/08/20 12:47:38;;;;;;;9.20;2.13;;;26.60;93.00;;;;;;5089277;28;20047;-72
2022/08/20 12:50:07;;;;;;;7.32;2.22;;;26.90;92.90;;;;;;5086819;28;20136;-72
2022/08/20 12:52:33;;;;;;;8.30;1.75;;;27.40;92.50;;;;;;5085284;28;20047;-73